sensor_id;sensor_type;location;lat;lon;timestamp;P1;durP1;ratioP1;P2;durP2;ratioP2
12429;SDS011;6279;42.192;24.326;2022-10-16T00:00:31;7.57;;;5.90;;
12429;SDS011;6279;42.192;24.326;2022-10-16T00:02:57;10.30;;;6.10;;
12429;SDS011;6279;42.192;24.326;2022-10-16T00:05:23;10.00;;;5.13;;
12429;SDS011;6279;42.192;24.326;2022-10-16T00:07:48;9.37;;;6.03;;
12429;SDS011;6279;42.192;24.326;2022-10-16T00:10:14;10.10;;;5.87;;
12429;SDS011;6279;42.192;24.326;2022-10-16T00:12:39;8.00;;;5.90;;
12429;SDS011;6279;42.192;24.326;2022-10-16T00:15:05;8.50;;;5.57;;
12429;SDS011;6279;42.192;24.326;2022-10-16T00:17:31;9.30;;;6.07;;
12429;SDS011;6279;42.192;24.326;2022-10-16T00:19:56;10.70;;;6.50;;
12429;SDS011;6279;42.192;24.326;2022-10-16T00:22:21;6.67;;;5.67;;
12429;SDS011;6279;42.192;24.326;2022-10-16T00:24:47;7.30;;;6.10;;
12429;SDS011;6279;42.192;24.326;2022-10-16T00:27:12;8.93;;;6.43;;
12429;SDS011;6279;42.192;24.326;2022-10-16T00:29:38;7.10;;;5.70;;
12429;SDS011;6279;42.192;24.326;2022-10-16T00:32:03;8.13;;;6.03;;
12429;SDS011;6279;42.192;24.326;2022-10-16T00:34:29;9.20;;;5.47;;
12429;SDS011;6279;42.192;24.326;2022-10-16T00:36:54;6.40;;;5.40;;
12429;SDS011;6279;42.192;24.326;2022-10-16T00:39:19;7.17;;;5.60;;
12429;SDS011;6279;42.192;24.326;2022-10-16T00:41:45;6.87;;;5.87;;
12429;SDS011;6279;42.192;24.326;2022-10-16T00:47:19;7.53;;;5.80;;
12429;SDS011;6279;42.192;24.326;2022-10-16T00:52:52;7.03;;;5.20;;
12429;SDS011;6279;42.192;24.326;2022-10-16T00:55:18;7.07;;;5.27;;
12429;SDS011;6279;42.192;24.326;2022-10-16T00:57:44;6.93;;;5.53;;
12429;SDS011;6279;42.192;24.326;2022-10-16T01:00:11;8.67;;;5.53;;
12429;SDS011;6279;42.192;24.326;2022-10-16T01:02:39;8.97;;;5.23;;
12429;SDS011;6279;42.192;24.326;2022-10-16T01:05:04;7.73;;;5.47;;
12429;SDS011;6279;42.192;24.326;2022-10-16T01:07:34;8.80;;;5.53;;
12429;SDS011;6279;42.192;24.326;2022-10-16T01:10:16;7.80;;;5.47;;
12429;SDS011;6279;42.192;24.326;2022-10-16T01:13:19;7.20;;;5.80;;
12429;SDS011;6279;42.192;24.326;2022-10-16T01:15:55;8.87;;;5.70;;
12429;SDS011;6279;42.192;24.326;2022-10-16T01:18:34;6.43;;;5.27;;
12429;SDS011;6279;42.192;24.326;2022-10-16T01:21:02;10.10;;;6.20;;
12429;SDS011;6279;42.192;24.326;2022-10-16T01:32:52;7.60;;;5.40;;
12429;SDS011;6279;42.192;24.326;2022-10-16T01:35:29;7.47;;;5.43;;
12429;SDS011;6279;42.192;24.326;2022-10-16T01:40:28;8.90;;;5.27;;
12429;SDS011;6279;42.192;24.326;2022-10-16T01:43:06;6.80;;;5.27;;
12429;SDS011;6279;42.192;24.326;2022-10-16T01:45:36;7.73;;;5.00;;
12429;SDS011;6279;42.192;24.326;2022-10-16T01:48:02;5.83;;;4.93;;
12429;SDS011;6279;42.192;24.326;2022-10-16T01:50:31;6.30;;;4.93;;
12429;SDS011;6279;42.192;24.326;2022-10-16T01:52:59;6.40;;;4.77;;
12429;SDS011;6279;42.192;24.326;2022-10-16T01:55:31;7.37;;;5.27;;
12429;SDS011;6279;42.192;24.326;2022-10-16T01:58:01;6.23;;;4.90;;
12429;SDS011;6279;42.192;24.326;2022-10-16T02:00:30;6.47;;;5.10;;
12429;SDS011;6279;42.192;24.326;2022-10-16T02:02:59;7.27;;;5.43;;
12429;SDS011;6279;42.192;24.326;2022-10-16T02:05:32;6.63;;;4.67;;
12429;SDS011;6279;42.192;24.326;2022-10-16T02:08:03;8.67;;;5.57;;
12429;SDS011;6279;42.192;24.326;2022-10-16T02:10:29;7.23;;;5.37;;
12429;SDS011;6279;42.192;24.326;2022-10-16T02:13:02;5.63;;;5.03;;
12429;SDS011;6279;42.192;24.326;2022-10-16T02:15:31;7.13;;;5.47;;
12429;SDS011;6279;42.192;24.326;2022-10-16T02:17:56;6.70;;;5.33;;
12429;SDS011;6279;42.192;24.326;2022-10-16T02:20:23;5.90;;;5.30;;
12429;SDS011;6279;42.192;24.326;2022-10-16T02:22:51;6.07;;;5.23;;
12429;SDS011;6279;42.192;24.326;2022-10-16T02:25:24;8.17;;;5.37;;
12429;SDS011;6279;42.192;24.326;2022-10-16T02:27:59;5.87;;;5.27;;
12429;SDS011;6279;42.192;24.326;2022-10-16T02:33:00;6.17;;;5.43;;
12429;SDS011;6279;42.192;24.326;2022-10-16T02:35:28;6.90;;;5.10;;
12429;SDS011;6279;42.192;24.326;2022-10-16T02:37:56;8.37;;;5.20;;
12429;SDS011;6279;42.192;24.326;2022-10-16T02:40:22;7.77;;;5.23;;
12429;SDS011;6279;42.192;24.326;2022-10-16T02:42:50;6.57;;;4.90;;
12429;SDS011;6279;42.192;24.326;2022-10-16T02:45:17;6.83;;;5.60;;
12429;SDS011;6279;42.192;24.326;2022-10-16T02:47:43;7.17;;;4.87;;
12429;SDS011;6279;42.192;24.326;2022-10-16T02:50:09;5.93;;;5.30;;
12429;SDS011;6279;42.192;24.326;2022-10-16T02:52:34;8.87;;;5.23;;
12429;SDS011;6279;42.192;24.326;2022-10-16T02:55:00;7.30;;;5.10;;
12429;SDS011;6279;42.192;24.326;2022-10-16T02:57:25;6.53;;;5.17;;
12429;SDS011;6279;42.192;24.326;2022-10-16T02:59:51;6.03;;;5.27;;
12429;SDS011;6279;42.192;24.326;2022-10-16T03:02:16;8.00;;;5.70;;
12429;SDS011;6279;42.192;24.326;2022-10-16T03:04:42;7.33;;;5.37;;
12429;SDS011;6279;42.192;24.326;2022-10-16T03:07:07;9.87;;;5.47;;
12429;SDS011;6279;42.192;24.326;2022-10-16T03:09:32;6.97;;;5.23;;
12429;SDS011;6279;42.192;24.326;2022-10-16T03:11:58;6.43;;;5.17;;
12429;SDS011;6279;42.192;24.326;2022-10-16T03:14:24;6.87;;;5.17;;
12429;SDS011;6279;42.192;24.326;2022-10-16T03:16:49;7.37;;;5.40;;
12429;SDS011;6279;42.192;24.326;2022-10-16T03:19:18;7.17;;;5.40;;
12429;SDS011;6279;42.192;24.326;2022-10-16T03:21:43;5.87;;;5.07;;
12429;SDS011;6279;42.192;24.326;2022-10-16T03:24:09;9.73;;;5.43;;
12429;SDS011;6279;42.192;24.326;2022-10-16T03:26:34;6.67;;;5.53;;
12429;SDS011;6279;42.192;24.326;2022-10-16T03:29:00;5.90;;;5.27;;
12429;SDS011;6279;42.192;24.326;2022-10-16T03:31:27;7.30;;;5.83;;
12429;SDS011;6279;42.192;24.326;2022-10-16T03:33:52;7.80;;;5.33;;
12429;SDS011;6279;42.192;24.326;2022-10-16T03:36:18;6.37;;;5.23;;
12429;SDS011;6279;42.192;24.326;2022-10-16T03:38:43;7.93;;;5.40;;
12429;SDS011;6279;42.192;24.326;2022-10-16T03:41:09;8.43;;;5.50;;
12429;SDS011;6279;42.192;24.326;2022-10-16T03:43:34;5.80;;;5.00;;
12429;SDS011;6279;42.192;24.326;2022-10-16T03:45:59;6.63;;;4.90;;
12429;SDS011;6279;42.192;24.326;2022-10-16T03:48:25;7.67;;;5.30;;
12429;SDS011;6279;42.192;24.326;2022-10-16T03:50:50;6.00;;;5.33;;
12429;SDS011;6279;42.192;24.326;2022-10-16T03:53:16;8.53;;;5.67;;
12429;SDS011;6279;42.192;24.326;2022-10-16T03:55:42;10.43;;;5.23;;
12429;SDS011;6279;42.192;24.326;2022-10-16T03:58:08;8.67;;;5.57;;
12429;SDS011;6279;42.192;24.326;2022-10-16T04:00:33;7.77;;;5.23;;
12429;SDS011;6279;42.192;24.326;2022-10-16T04:02:59;6.03;;;4.77;;
12429;SDS011;6279;42.192;24.326;2022-10-16T04:05:25;7.07;;;5.93;;
12429;SDS011;6279;42.192;24.326;2022-10-16T04:07:50;7.73;;;5.77;;
12429;SDS011;6279;42.192;24.326;2022-10-16T04:10:16;5.63;;;4.93;;
12429;SDS011;6279;42.192;24.326;2022-10-16T04:12:41;7.57;;;5.30;;
12429;SDS011;6279;42.192;24.326;2022-10-16T04:15:07;5.83;;;5.23;;
12429;SDS011;6279;42.192;24.326;2022-10-16T04:17:33;8.97;;;5.47;;
12429;SDS011;6279;42.192;24.326;2022-10-16T04:19:58;5.97;;;5.27;;
12429;SDS011;6279;42.192;24.326;2022-10-16T04:22:24;8.00;;;5.53;;
12429;SDS011;6279;42.192;24.326;2022-10-16T04:24:49;7.67;;;5.87;;
12429;SDS011;6279;42.192;24.326;2022-10-16T04:27:14;6.80;;;5.30;;
12429;SDS011;6279;42.192;24.326;2022-10-16T04:29:40;11.97;;;6.20;;
12429;SDS011;6279;42.192;24.326;2022-10-16T04:32:06;8.57;;;6.63;;
12429;SDS011;6279;42.192;24.326;2022-10-16T04:34:33;7.93;;;5.83;;
12429;SDS011;6279;42.192;24.326;2022-10-16T04:36:59;12.70;;;5.90;;
12429;SDS011;6279;42.192;24.326;2022-10-16T04:39:25;10.57;;;5.97;;
12429;SDS011;6279;42.192;24.326;2022-10-16T04:41:50;6.73;;;5.87;;
12429;SDS011;6279;42.192;24.326;2022-10-16T04:44:16;8.13;;;6.30;;
12429;SDS011;6279;42.192;24.326;2022-10-16T04:46:41;10.47;;;6.90;;
12429;SDS011;6279;42.192;24.326;2022-10-16T04:49:06;12.47;;;6.20;;
12429;SDS011;6279;42.192;24.326;2022-10-16T04:51:32;8.00;;;6.40;;
12429;SDS011;6279;42.192;24.326;2022-10-16T04:53:57;10.03;;;6.83;;
12429;SDS011;6279;42.192;24.326;2022-10-16T04:56:23;7.77;;;5.77;;
12429;SDS011;6279;42.192;24.326;2022-10-16T04:58:49;8.63;;;5.77;;
12429;SDS011;6279;42.192;24.326;2022-10-16T05:01:14;11.50;;;5.90;;
12429;SDS011;6279;42.192;24.326;2022-10-16T05:03:40;9.23;;;6.00;;
12429;SDS011;6279;42.192;24.326;2022-10-16T05:06:06;7.33;;;5.87;;
12429;SDS011;6279;42.192;24.326;2022-10-16T05:08:32;9.03;;;6.40;;
12429;SDS011;6279;42.192;24.326;2022-10-16T05:10:57;9.50;;;5.80;;
12429;SDS011;6279;42.192;24.326;2022-10-16T05:13:23;8.47;;;6.10;;
12429;SDS011;6279;42.192;24.326;2022-10-16T05:15:51;11.00;;;6.57;;
12429;SDS011;6279;42.192;24.326;2022-10-16T05:18:17;8.87;;;6.03;;
12429;SDS011;6279;42.192;24.326;2022-10-16T05:20:42;8.60;;;6.03;;
12429;SDS011;6279;42.192;24.326;2022-10-16T05:23:07;8.53;;;5.30;;
12429;SDS011;6279;42.192;24.326;2022-10-16T05:25:35;8.63;;;5.20;;
12429;SDS011;6279;42.192;24.326;2022-10-16T05:28:01;9.07;;;5.83;;
12429;SDS011;6279;42.192;24.326;2022-10-16T05:30:26;7.47;;;5.67;;
12429;SDS011;6279;42.192;24.326;2022-10-16T05:32:52;7.27;;;5.70;;
12429;SDS011;6279;42.192;24.326;2022-10-16T05:35:17;10.03;;;6.53;;
12429;SDS011;6279;42.192;24.326;2022-10-16T05:37:43;8.03;;;5.67;;
12429;SDS011;6279;42.192;24.326;2022-10-16T05:40:09;7.30;;;5.23;;
12429;SDS011;6279;42.192;24.326;2022-10-16T05:42:35;9.40;;;6.37;;
12429;SDS011;6279;42.192;24.326;2022-10-16T05:45:00;11.50;;;6.60;;
12429;SDS011;6279;42.192;24.326;2022-10-16T05:47:29;9.83;;;5.83;;
12429;SDS011;6279;42.192;24.326;2022-10-16T05:49:54;8.30;;;5.30;;
12429;SDS011;6279;42.192;24.326;2022-10-16T05:52:20;5.90;;;4.50;;
12429;SDS011;6279;42.192;24.326;2022-10-16T05:54:45;6.87;;;4.93;;
12429;SDS011;6279;42.192;24.326;2022-10-16T05:57:11;10.20;;;4.63;;
12429;SDS011;6279;42.192;24.326;2022-10-16T05:59:36;8.00;;;5.20;;
12429;SDS011;6279;42.192;24.326;2022-10-16T06:02:02;6.27;;;4.33;;
12429;SDS011;6279;42.192;24.326;2022-10-16T06:04:27;8.93;;;4.43;;
12429;SDS011;6279;42.192;24.326;2022-10-16T06:06:53;7.97;;;4.90;;
12429;SDS011;6279;42.192;24.326;2022-10-16T06:09:18;5.30;;;3.93;;
12429;SDS011;6279;42.192;24.326;2022-10-16T06:11:43;6.83;;;3.80;;
12429;SDS011;6279;42.192;24.326;2022-10-16T06:14:09;9.73;;;4.10;;
12429;SDS011;6279;42.192;24.326;2022-10-16T06:16:35;6.27;;;4.20;;
12429;SDS011;6279;42.192;24.326;2022-10-16T06:19:01;10.23;;;3.97;;
12429;SDS011;6279;42.192;24.326;2022-10-16T06:21:30;6.10;;;4.03;;
12429;SDS011;6279;42.192;24.326;2022-10-16T06:23:57;6.50;;;3.90;;
12429;SDS011;6279;42.192;24.326;2022-10-16T06:26:24;4.73;;;4.13;;
12429;SDS011;6279;42.192;24.326;2022-10-16T06:28:51;8.73;;;5.17;;
12429;SDS011;6279;42.192;24.326;2022-10-16T06:31:19;5.80;;;4.53;;
12429;SDS011;6279;42.192;24.326;2022-10-16T06:33:45;6.33;;;4.33;;
12429;SDS011;6279;42.192;24.326;2022-10-16T06:36:15;10.93;;;5.03;;
12429;SDS011;6279;42.192;24.326;2022-10-16T06:38:42;7.23;;;5.90;;
12429;SDS011;6279;42.192;24.326;2022-10-16T06:41:09;9.57;;;6.17;;
12429;SDS011;6279;42.192;24.326;2022-10-16T06:43:37;6.07;;;4.50;;
12429;SDS011;6279;42.192;24.326;2022-10-16T06:46:03;6.57;;;4.70;;
12429;SDS011;6279;42.192;24.326;2022-10-16T06:48:30;9.83;;;4.50;;
12429;SDS011;6279;42.192;24.326;2022-10-16T06:50:57;6.33;;;4.40;;
12429;SDS011;6279;42.192;24.326;2022-10-16T06:53:23;6.57;;;5.10;;
12429;SDS011;6279;42.192;24.326;2022-10-16T06:55:49;6.30;;;4.70;;
12429;SDS011;6279;42.192;24.326;2022-10-16T06:58:14;11.53;;;4.37;;
12429;SDS011;6279;42.192;24.326;2022-10-16T07:00:40;4.23;;;3.77;;
12429;SDS011;6279;42.192;24.326;2022-10-16T07:03:05;6.87;;;3.93;;
12429;SDS011;6279;42.192;24.326;2022-10-16T07:05:31;5.97;;;4.07;;
12429;SDS011;6279;42.192;24.326;2022-10-16T07:07:56;5.60;;;3.90;;
12429;SDS011;6279;42.192;24.326;2022-10-16T07:10:21;7.37;;;4.20;;
12429;SDS011;6279;42.192;24.326;2022-10-16T07:12:49;7.33;;;4.10;;
12429;SDS011;6279;42.192;24.326;2022-10-16T07:15:14;7.43;;;4.50;;
12429;SDS011;6279;42.192;24.326;2022-10-16T07:17:40;4.60;;;4.10;;
12429;SDS011;6279;42.192;24.326;2022-10-16T07:20:05;4.67;;;3.97;;
12429;SDS011;6279;42.192;24.326;2022-10-16T07:22:31;6.80;;;4.27;;
12429;SDS011;6279;42.192;24.326;2022-10-16T07:24:57;6.37;;;3.70;;
12429;SDS011;6279;42.192;24.326;2022-10-16T07:27:23;5.38;;;4.05;;
12429;SDS011;6279;42.192;24.326;2022-10-16T07:29:49;4.93;;;3.80;;
12429;SDS011;6279;42.192;24.326;2022-10-16T07:32:14;5.78;;;4.20;;
12429;SDS011;6279;42.192;24.326;2022-10-16T07:34:40;8.60;;;4.70;;
12429;SDS011;6279;42.192;24.326;2022-10-16T07:37:05;8.15;;;4.55;;
12429;SDS011;6279;42.192;24.326;2022-10-16T07:39:31;5.63;;;3.75;;
12429;SDS011;6279;42.192;24.326;2022-10-16T07:41:56;4.28;;;3.58;;
12429;SDS011;6279;42.192;24.326;2022-10-16T07:44:21;4.95;;;3.92;;
12429;SDS011;6279;42.192;24.326;2022-10-16T07:46:47;5.85;;;4.28;;
12429;SDS011;6279;42.192;24.326;2022-10-16T07:49:12;5.65;;;4.18;;
12429;SDS011;6279;42.192;24.326;2022-10-16T07:51:38;7.80;;;4.35;;
12429;SDS011;6279;42.192;24.326;2022-10-16T07:54:04;4.78;;;4.07;;
12429;SDS011;6279;42.192;24.326;2022-10-16T07:56:30;6.38;;;4.20;;
12429;SDS011;6279;42.192;24.326;2022-10-16T07:58:57;5.57;;;3.80;;
12429;SDS011;6279;42.192;24.326;2022-10-16T08:01:22;5.25;;;4.10;;
12429;SDS011;6279;42.192;24.326;2022-10-16T08:03:49;6.75;;;4.25;;
12429;SDS011;6279;42.192;24.326;2022-10-16T08:06:15;9.10;;;4.28;;
12429;SDS011;6279;42.192;24.326;2022-10-16T08:08:41;6.63;;;4.00;;
12429;SDS011;6279;42.192;24.326;2022-10-16T08:11:07;5.65;;;3.90;;
12429;SDS011;6279;42.192;24.326;2022-10-16T08:13:33;6.85;;;4.32;;
12429;SDS011;6279;42.192;24.326;2022-10-16T08:15:58;4.97;;;3.95;;
12429;SDS011;6279;42.192;24.326;2022-10-16T08:18:24;9.35;;;4.15;;
12429;SDS011;6279;42.192;24.326;2022-10-16T08:20:56;8.65;;;4.20;;
12429;SDS011;6279;42.192;24.326;2022-10-16T08:23:22;5.47;;;4.07;;
12429;SDS011;6279;42.192;24.326;2022-10-16T08:25:48;10.05;;;4.22;;
12429;SDS011;6279;42.192;24.326;2022-10-16T08:28:13;5.63;;;4.15;;
12429;SDS011;6279;42.192;24.326;2022-10-16T08:30:39;6.38;;;4.53;;
12429;SDS011;6279;42.192;24.326;2022-10-16T08:33:05;5.57;;;3.90;;
12429;SDS011;6279;42.192;24.326;2022-10-16T08:35:31;5.88;;;3.92;;
12429;SDS011;6279;42.192;24.326;2022-10-16T08:37:56;5.70;;;4.15;;
12429;SDS011;6279;42.192;24.326;2022-10-16T08:40:23;5.28;;;4.15;;
12429;SDS011;6279;42.192;24.326;2022-10-16T08:48:43;6.28;;;4.20;;
12429;SDS011;6279;42.192;24.326;2022-10-16T08:51:15;7.45;;;4.05;;
12429;SDS011;6279;42.192;24.326;2022-10-16T08:56:31;9.73;;;4.07;;
12429;SDS011;6279;42.192;24.326;2022-10-16T08:58:58;8.70;;;4.32;;
12429;SDS011;6279;42.192;24.326;2022-10-16T09:01:25;5.38;;;3.75;;
12429;SDS011;6279;42.192;24.326;2022-10-16T09:07:17;5.28;;;3.70;;
12429;SDS011;6279;42.192;24.326;2022-10-16T09:10:03;5.18;;;3.90;;
12429;SDS011;6279;42.192;24.326;2022-10-16T09:15:32;6.80;;;3.83;;
12429;SDS011;6279;42.192;24.326;2022-10-16T09:23:19;6.75;;;4.50;;
12429;SDS011;6279;42.192;24.326;2022-10-16T09:25:50;9.75;;;4.20;;
12429;SDS011;6279;42.192;24.326;2022-10-16T09:28:16;7.93;;;4.97;;
12429;SDS011;6279;42.192;24.326;2022-10-16T09:30:43;4.85;;;3.80;;
12429;SDS011;6279;42.192;24.326;2022-10-16T09:33:10;6.10;;;4.05;;
12429;SDS011;6279;42.192;24.326;2022-10-16T09:35:42;6.97;;;4.07;;
12429;SDS011;6279;42.192;24.326;2022-10-16T09:38:09;5.35;;;4.45;;
12429;SDS011;6279;42.192;24.326;2022-10-16T09:40:49;9.35;;;4.75;;
12429;SDS011;6279;42.192;24.326;2022-10-16T09:45:52;8.75;;;4.40;;
12429;SDS011;6279;42.192;24.326;2022-10-16T09:48:30;5.93;;;3.85;;
12429;SDS011;6279;42.192;24.326;2022-10-16T09:51:02;8.63;;;4.13;;
12429;SDS011;6279;42.192;24.326;2022-10-16T09:53:43;4.45;;;4.05;;
12429;SDS011;6279;42.192;24.326;2022-10-16T09:56:11;6.05;;;3.83;;
12429;SDS011;6279;42.192;24.326;2022-10-16T09:58:52;8.60;;;4.45;;
12429;SDS011;6279;42.192;24.326;2022-10-16T10:01:19;9.88;;;5.18;;
12429;SDS011;6279;42.192;24.326;2022-10-16T10:03:46;6.55;;;4.93;;
12429;SDS011;6279;42.192;24.326;2022-10-16T10:06:26;6.97;;;4.97;;
12429;SDS011;6279;42.192;24.326;2022-10-16T10:09:00;8.38;;;5.25;;
12429;SDS011;6279;42.192;24.326;2022-10-16T10:12:04;7.70;;;4.55;;
12429;SDS011;6279;42.192;24.326;2022-10-16T10:14:38;7.60;;;4.50;;
12429;SDS011;6279;42.192;24.326;2022-10-16T10:17:09;9.48;;;4.63;;
12429;SDS011;6279;42.192;24.326;2022-10-16T10:22:42;7.18;;;4.10;;
12429;SDS011;6279;42.192;24.326;2022-10-16T10:33:25;4.93;;;3.40;;
12429;SDS011;6279;42.192;24.326;2022-10-16T10:49:57;13.25;;;8.73;;
12429;SDS011;6279;42.192;24.326;2022-10-16T10:55:31;21.63;;;5.55;;
12429;SDS011;6279;42.192;24.326;2022-10-16T11:01:12;7.50;;;3.10;;
12429;SDS011;6279;42.192;24.326;2022-10-16T11:11:25;3.87;;;3.23;;
12429;SDS011;6279;42.192;24.326;2022-10-16T11:14:19;3.83;;;3.30;;
12429;SDS011;6279;42.192;24.326;2022-10-16T11:24:59;4.27;;;3.70;;
12429;SDS011;6279;42.192;24.326;2022-10-16T11:33:41;5.73;;;3.70;;
12429;SDS011;6279;42.192;24.326;2022-10-16T11:36:20;7.20;;;3.77;;
12429;SDS011;6279;42.192;24.326;2022-10-16T11:41:48;10.30;;;3.97;;
12429;SDS011;6279;42.192;24.326;2022-10-16T11:44:48;5.27;;;3.70;;
12429;SDS011;6279;42.192;24.326;2022-10-16T11:53:19;6.53;;;4.23;;
12429;SDS011;6279;42.192;24.326;2022-10-16T11:55:57;5.67;;;3.70;;
12429;SDS011;6279;42.192;24.326;2022-10-16T12:04:27;3.77;;;3.30;;
12429;SDS011;6279;42.192;24.326;2022-10-16T12:07:11;3.40;;;3.10;;
12429;SDS011;6279;42.192;24.326;2022-10-16T12:09:43;4.37;;;3.40;;
12429;SDS011;6279;42.192;24.326;2022-10-16T12:12:24;4.17;;;3.20;;
12429;SDS011;6279;42.192;24.326;2022-10-16T12:15:02;4.93;;;3.83;;
12429;SDS011;6279;42.192;24.326;2022-10-16T12:17:42;6.27;;;3.40;;
12429;SDS011;6279;42.192;24.326;2022-10-16T12:22:36;5.30;;;3.20;;
12429;SDS011;6279;42.192;24.326;2022-10-16T12:25:40;6.40;;;3.30;;
12429;SDS011;6279;42.192;24.326;2022-10-16T12:28:00;4.50;;;3.10;;
12429;SDS011;6279;42.192;24.326;2022-10-16T12:30:32;4.60;;;3.30;;
12429;SDS011;6279;42.192;24.326;2022-10-16T12:33:01;5.40;;;3.10;;
12429;SDS011;6279;42.192;24.326;2022-10-16T12:35:35;4.00;;;3.40;;
12429;SDS011;6279;42.192;24.326;2022-10-16T12:38:15;6.87;;;3.03;;
12429;SDS011;6279;42.192;24.326;2022-10-16T12:40:43;4.90;;;2.93;;
12429;SDS011;6279;42.192;24.326;2022-10-16T12:43:11;3.47;;;3.00;;
12429;SDS011;6279;42.192;24.326;2022-10-16T12:45:48;4.13;;;3.13;;
12429;SDS011;6279;42.192;24.326;2022-10-16T12:48:24;3.67;;;3.20;;
12429;SDS011;6279;42.192;24.326;2022-10-16T12:50:50;6.43;;;3.50;;
12429;SDS011;6279;42.192;24.326;2022-10-16T12:53:19;3.30;;;3.00;;
12429;SDS011;6279;42.192;24.326;2022-10-16T12:56:02;5.13;;;3.83;;
12429;SDS011;6279;42.192;24.326;2022-10-16T13:01:21;3.30;;;2.87;;
12429;SDS011;6279;42.192;24.326;2022-10-16T13:28:05;4.10;;;2.80;;
12429;SDS011;6279;42.192;24.326;2022-10-16T13:33:12;6.90;;;4.07;;
12429;SDS011;6279;42.192;24.326;2022-10-16T13:35:51;6.43;;;2.83;;
12429;SDS011;6279;42.192;24.326;2022-10-16T13:38:19;3.30;;;2.53;;
12429;SDS011;6279;42.192;24.326;2022-10-16T13:40:50;4.13;;;2.77;;
12429;SDS011;6279;42.192;24.326;2022-10-16T13:43:27;10.30;;;2.97;;
12429;SDS011;6279;42.192;24.326;2022-10-16T13:46:04;6.53;;;2.97;;
12429;SDS011;6279;42.192;24.326;2022-10-16T13:48:38;6.77;;;3.00;;
12429;SDS011;6279;42.192;24.326;2022-10-16T13:51:10;5.87;;;2.83;;
12429;SDS011;6279;42.192;24.326;2022-10-16T13:53:36;5.83;;;2.90;;
12429;SDS011;6279;42.192;24.326;2022-10-16T13:56:05;3.47;;;2.50;;
12429;SDS011;6279;42.192;24.326;2022-10-16T13:58:32;5.00;;;2.63;;
12429;SDS011;6279;42.192;24.326;2022-10-16T14:00:59;3.50;;;2.37;;
12429;SDS011;6279;42.192;24.326;2022-10-16T14:03:27;3.43;;;2.50;;
12429;SDS011;6279;42.192;24.326;2022-10-16T14:06:01;3.93;;;2.83;;
12429;SDS011;6279;42.192;24.326;2022-10-16T14:08:28;3.60;;;2.87;;
12429;SDS011;6279;42.192;24.326;2022-10-16T14:11:04;6.07;;;2.83;;
12429;SDS011;6279;42.192;24.326;2022-10-16T14:13:32;2.90;;;2.60;;
12429;SDS011;6279;42.192;24.326;2022-10-16T14:16:02;2.97;;;2.57;;
12429;SDS011;6279;42.192;24.326;2022-10-16T14:18:32;3.80;;;2.57;;
12429;SDS011;6279;42.192;24.326;2022-10-16T14:21:03;2.83;;;2.50;;
12429;SDS011;6279;42.192;24.326;2022-10-16T14:23:36;3.50;;;3.17;;
12429;SDS011;6279;42.192;24.326;2022-10-16T14:26:45;3.60;;;2.80;;
12429;SDS011;6279;42.192;24.326;2022-10-16T14:29:10;6.10;;;3.37;;
12429;SDS011;6279;42.192;24.326;2022-10-16T14:31:39;3.37;;;3.07;;
12429;SDS011;6279;42.192;24.326;2022-10-16T14:34:28;5.20;;;2.73;;
12429;SDS011;6279;42.192;24.326;2022-10-16T14:37:06;5.00;;;3.13;;
12429;SDS011;6279;42.192;24.326;2022-10-16T14:39:38;4.83;;;3.00;;
12429;SDS011;6279;42.192;24.326;2022-10-16T14:42:05;3.50;;;3.20;;
12429;SDS011;6279;42.192;24.326;2022-10-16T14:44:43;3.50;;;3.03;;
12429;SDS011;6279;42.192;24.326;2022-10-16T14:47:11;5.80;;;3.63;;
12429;SDS011;6279;42.192;24.326;2022-10-16T14:49:41;8.47;;;4.13;;
12429;SDS011;6279;42.192;24.326;2022-10-16T14:52:10;6.43;;;3.57;;
12429;SDS011;6279;42.192;24.326;2022-10-16T14:54:37;5.90;;;4.23;;
12429;SDS011;6279;42.192;24.326;2022-10-16T14:57:03;6.27;;;4.27;;
12429;SDS011;6279;42.192;24.326;2022-10-16T14:59:33;5.43;;;3.50;;
12429;SDS011;6279;42.192;24.326;2022-10-16T15:02:02;7.63;;;4.23;;
12429;SDS011;6279;42.192;24.326;2022-10-16T15:04:49;7.47;;;4.07;;
12429;SDS011;6279;42.192;24.326;2022-10-16T15:07:14;4.63;;;3.57;;
12429;SDS011;6279;42.192;24.326;2022-10-16T15:09:40;3.50;;;2.57;;
12429;SDS011;6279;42.192;24.326;2022-10-16T15:12:05;4.40;;;3.60;;
12429;SDS011;6279;42.192;24.326;2022-10-16T15:14:31;8.70;;;4.20;;
12429;SDS011;6279;42.192;24.326;2022-10-16T15:16:56;11.90;;;4.60;;
12429;SDS011;6279;42.192;24.326;2022-10-16T15:19:22;7.43;;;4.40;;
12429;SDS011;6279;42.192;24.326;2022-10-16T15:21:47;8.83;;;4.93;;
12429;SDS011;6279;42.192;24.326;2022-10-16T15:24:14;8.97;;;4.53;;
12429;SDS011;6279;42.192;24.326;2022-10-16T15:26:40;10.57;;;5.40;;
12429;SDS011;6279;42.192;24.326;2022-10-16T15:29:06;11.77;;;6.50;;
12429;SDS011;6279;42.192;24.326;2022-10-16T15:31:32;7.67;;;5.30;;
12429;SDS011;6279;42.192;24.326;2022-10-16T15:33:58;7.00;;;4.90;;
12429;SDS011;6279;42.192;24.326;2022-10-16T15:36:29;5.30;;;4.30;;
12429;SDS011;6279;42.192;24.326;2022-10-16T15:38:58;7.80;;;4.70;;
12429;SDS011;6279;42.192;24.326;2022-10-16T15:41:24;6.27;;;4.27;;
12429;SDS011;6279;42.192;24.326;2022-10-16T15:43:49;8.20;;;4.53;;
12429;SDS011;6279;42.192;24.326;2022-10-16T15:46:17;9.80;;;4.73;;
12429;SDS011;6279;42.192;24.326;2022-10-16T15:48:44;10.17;;;5.33;;
12429;SDS011;6279;42.192;24.326;2022-10-16T15:51:12;8.73;;;5.37;;
12429;SDS011;6279;42.192;24.326;2022-10-16T15:53:38;9.37;;;4.77;;
12429;SDS011;6279;42.192;24.326;2022-10-16T15:56:06;9.30;;;5.77;;
12429;SDS011;6279;42.192;24.326;2022-10-16T15:58:34;13.57;;;8.30;;
12429;SDS011;6279;42.192;24.326;2022-10-16T16:01:00;15.27;;;9.00;;
12429;SDS011;6279;42.192;24.326;2022-10-16T16:03:26;17.20;;;9.93;;
12429;SDS011;6279;42.192;24.326;2022-10-16T16:05:53;39.40;;;20.90;;
12429;SDS011;6279;42.192;24.326;2022-10-16T16:08:18;29.10;;;14.30;;
12429;SDS011;6279;42.192;24.326;2022-10-16T16:10:44;64.17;;;30.97;;
12429;SDS011;6279;42.192;24.326;2022-10-16T16:13:10;59.90;;;30.03;;
12429;SDS011;6279;42.192;24.326;2022-10-16T16:15:38;24.80;;;13.57;;
12429;SDS011;6279;42.192;24.326;2022-10-16T16:18:04;26.93;;;8.23;;
12429;SDS011;6279;42.192;24.326;2022-10-16T16:20:30;29.57;;;6.80;;
12429;SDS011;6279;42.192;24.326;2022-10-16T16:22:58;18.43;;;11.40;;
12429;SDS011;6279;42.192;24.326;2022-10-16T16:25:24;17.93;;;10.50;;
12429;SDS011;6279;42.192;24.326;2022-10-16T16:27:49;18.60;;;10.63;;
12429;SDS011;6279;42.192;24.326;2022-10-16T16:30:15;14.50;;;9.47;;
12429;SDS011;6279;42.192;24.326;2022-10-16T16:32:42;16.07;;;9.60;;
12429;SDS011;6279;42.192;24.326;2022-10-16T16:35:08;22.13;;;12.00;;
12429;SDS011;6279;42.192;24.326;2022-10-16T16:37:34;13.27;;;7.13;;
12429;SDS011;6279;42.192;24.326;2022-10-16T16:39:59;17.20;;;7.27;;
12429;SDS011;6279;42.192;24.326;2022-10-16T16:42:25;18.37;;;8.60;;
12429;SDS011;6279;42.192;24.326;2022-10-16T16:44:52;18.37;;;10.57;;
12429;SDS011;6279;42.192;24.326;2022-10-16T16:47:18;16.43;;;9.97;;
12429;SDS011;6279;42.192;24.326;2022-10-16T16:49:43;21.33;;;10.63;;
12429;SDS011;6279;42.192;24.326;2022-10-16T16:52:09;18.07;;;10.47;;
12429;SDS011;6279;42.192;24.326;2022-10-16T16:54:34;19.93;;;11.80;;
12429;SDS011;6279;42.192;24.326;2022-10-16T16:57:00;20.60;;;11.53;;
12429;SDS011;6279;42.192;24.326;2022-10-16T16:59:25;26.43;;;15.97;;
12429;SDS011;6279;42.192;24.326;2022-10-16T17:01:51;24.37;;;15.97;;
12429;SDS011;6279;42.192;24.326;2022-10-16T17:04:16;31.27;;;15.07;;
12429;SDS011;6279;42.192;24.326;2022-10-16T17:06:42;35.00;;;14.07;;
12429;SDS011;6279;42.192;24.326;2022-10-16T17:09:08;36.40;;;14.70;;
12429;SDS011;6279;42.192;24.326;2022-10-16T17:11:34;22.27;;;12.27;;
12429;SDS011;6279;42.192;24.326;2022-10-16T17:14:03;21.20;;;12.63;;
12429;SDS011;6279;42.192;24.326;2022-10-16T17:16:30;27.63;;;12.30;;